Time;durP1;ratioP1;P1;durP2;ratioP2;P2;SDS_P1;SDS_P2;PMS_P1;PMS_P2;Temp;Humidity;BMP_temperature;BMP_pressure;BME280_temperature;BME280_humidity;BME280_pressure;Samples;Min_cycle;Max_cycle;Signal;HPM_P1;HPM_P2
2023/09/20 00:02:13;;;;;;;1.55;1.38;;;21.20;66.30;;;;;;5053133;28;20175;-64
2023/09/20 00:04:40;;;;;;;1.75;1.02;;;21.10;66.20;;;;;;5052377;28;20225;-64
2023/09/20 00:07:07;;;;;;;1.55;1.13;;;21.10;66.20;;;;;;5052846;28;20215;-64
2023/09/20 00:09:33;;;;;;;3.83;1.40;;;21.10;66.20;;;;;;5053092;28;20256;-64
2023/09/20 00:11:58;;;;;;;2.60;1.35;;;21.10;66.20;;;;;;5052141;28;20206;-63
2023/09/20 00:14:24;;;;;;;3.35;1.08;;;21.10;66.30;;;;;;5052814;28;20171;-63
2023/09/20 00:16:52;;;;;;;1.48;1.10;;;21.10;66.20;;;;;;5052335;28;20194;-64
2023/09/20 00:19:18;;;;;;;2.53;1.20;;;21.10;66.20;;;;;;5052650;28;20175;-64
2023/09/20 00:21:44;;;;;;;2.22;1.38;;;21.10;66.20;;;;;;5052888;28;20186;-64
2023/09/20 00:24:10;;;;;;;1.30;1.10;;;21.10;66.20;;;;;;5051738;28;20171;-64
2023/09/20 00:26:35;;;;;;;2.53;1.42;;;21.10;66.20;;;;;;5052853;28;20335;-63
2023/09/20 00:29:04;;;;;;;2.70;1.50;;;21.10;66.20;;;;;;5052586;28;20174;-64
2023/09/20 00:31:33;;;;;;;1.40;1.10;;;21.10;66.20;;;;;;5052091;28;20187;-63
2023/09/20 00:34:00;;;;;;;2.25;1.40;;;21.10;66.20;;;;;;5052589;28;20183;-67
2023/09/20 00:36:26;;;;;;;1.33;1.20;;;21.10;66.30;;;;;;5052540;28;20539;-64
2023/09/20 00:38:55;;;;;;;5.70;1.58;;;21.10;66.30;;;;;;5052060;28;20629;-63
2023/09/20 00:41:21;;;;;;;1.83;1.20;;;21.10;66.20;;;;;;5052390;28;20244;-64
2023/09/20 00:43:46;;;;;;;2.13;1.20;;;21.10;66.40;;;;;;5052234;28;20187;-64
2023/09/20 00:46:12;;;;;;;2.15;1.20;;;21.10;66.40;;;;;;5051495;28;20294;-64
2023/09/20 00:48:41;;;;;;;1.58;1.10;;;21.10;66.30;;;;;;5034691;28;20267;-63
2023/09/20 00:51:06;;;;;;;2.20;1.20;;;21.10;66.30;;;;;;5052191;28;20174;-63
2023/09/20 00:53:32;;;;;;;1.98;1.27;;;21.10;66.30;;;;;;5034180;28;20258;-64
2023/09/20 00:55:58;;;;;;;1.92;1.20;;;21.10;66.30;;;;;;5034420;28;20206;-63
2023/09/20 00:58:24;;;;;;;3.78;1.80;;;21.10;66.40;;;;;;5034848;28;20202;-63
2023/09/20 01:00:53;;;;;;;1.90;1.33;;;21.10;66.30;;;;;;5051844;28;20201;-63
2023/09/20 01:03:19;;;;;;;3.47;1.35;;;21.10;66.30;;;;;;5034740;28;20637;-64
2023/09/20 01:05:47;;;;;;;2.47;1.40;;;21.10;66.30;;;;;;5052373;28;20183;-64
2023/09/20 01:08:12;;;;;;;2.72;1.27;;;21.10;66.40;;;;;;5051506;28;20305;-64
2023/09/20 01:10:38;;;;;;;2.00;1.23;;;21.10;66.30;;;;;;5052420;28;20199;-63
2023/09/20 01:13:05;;;;;;;1.38;1.00;;;21.10;66.40;;;;;;5051147;28;20175;-63
2023/09/20 01:15:34;;;;;;;3.25;1.40;;;21.10;66.30;;;;;;5052118;28;20182;-63
2023/09/20 01:18:01;;;;;;;2.53;1.70;;;21.10;66.30;;;;;;5051903;28;20175;-64
2023/09/20 01:20:30;;;;;;;2.15;1.00;;;21.10;66.40;;;;;;5051303;28;20190;-64
2023/09/20 01:22:56;;;;;;;1.95;1.17;;;21.10;66.30;;;;;;5052241;28;20194;-64
2023/09/20 01:25:30;;;;;;;2.25;1.17;;;21.10;66.30;;;;;;5052046;28;20206;-64
2023/09/20 01:27:57;;;;;;;2.53;1.33;;;21.10;66.40;;;;;;5051498;28;20226;-65
2023/09/20 01:30:25;;;;;;;1.45;1.00;;;21.10;67.30;;;;;;5052009;28;20202;-64
2023/09/20 01:32:54;;;;;;;1.90;1.02;;;21.10;66.40;;;;;;5052288;28;20269;-64
2023/09/20 01:35:23;;;;;;;2.05;1.30;;;21.10;66.40;;;;;;5051174;28;20263;-64
2023/09/20 01:37:52;;;;;;;2.88;1.77;;;21.10;66.40;;;;;;5052109;28;20227;-63
2023/09/20 01:40:19;;;;;;;2.20;1.25;;;21.00;66.40;;;;;;5052059;28;20175;-63
2023/09/20 01:42:48;;;;;;;1.98;1.20;;;21.00;66.40;;;;;;5051424;28;20266;-64
2023/09/20 01:45:18;;;;;;;3.70;1.40;;;21.00;66.50;;;;;;5051604;28;20515;-64
2023/09/20 01:47:44;;;;;;;1.65;1.50;;;21.10;66.40;;;;;;5052107;28;20211;-63
2023/09/20 01:50:11;;;;;;;2.25;1.13;;;21.00;66.40;;;;;;5051115;28;20183;-63
2023/09/20 01:52:38;;;;;;;1.77;1.10;;;21.00;66.50;;;;;;5052123;28;20548;-63
2023/09/20 01:55:07;;;;;;;1.80;1.20;;;21.00;66.50;;;;;;5053901;28;20258;-64
2023/09/20 01:57:33;;;;;;;1.30;1.20;;;21.00;66.50;;;;;;5054759;28;20544;-63
2023/09/20 01:59:59;;;;;;;2.50;1.00;;;21.00;66.50;;;;;;5055254;28;20178;-63
2023/09/20 02:02:24;;;;;;;2.58;1.38;;;21.00;66.50;;;;;;5054775;28;20262;-63
2023/09/20 02:04:50;;;;;;;3.53;1.15;;;21.00;66.50;;;;;;5055533;28;20183;-63
2023/09/20 02:07:15;;;;;;;1.80;1.20;;;21.00;66.50;;;;;;5055154;28;20207;-64
2023/09/20 02:09:41;;;;;;;2.13;1.00;;;21.00;66.60;;;;;;5054811;28;20198;-64
2023/09/20 02:12:07;;;;;;;2.22;1.10;;;21.00;66.50;;;;;;5055162;28;20203;-63
2023/09/20 02:14:32;;;;;;;2.20;1.30;;;21.00;66.50;;;;;;5055634;28;20200;-63
2023/09/20 02:16:58;;;;;;;1.38;1.10;;;21.00;66.50;;;;;;5054467;28;20179;-63
2023/09/20 02:19:23;;;;;;;1.17;1.05;;;21.00;67.40;;;;;;5055294;28;20167;-64
2023/09/20 02:21:49;;;;;;;1.92;1.33;;;21.00;66.60;;;;;;5055284;28;20175;-64
2023/09/20 02:24:14;;;;;;;1.63;1.30;;;21.00;66.60;;;;;;5054150;28;20254;-64
2023/09/20 02:26:40;;;;;;;2.45;1.10;;;21.00;66.60;;;;;;5054917;28;20324;-64
2023/09/20 02:29:07;;;;;;;1.20;1.02;;;21.00;66.60;;;;;;5054609;28;20629;-64
2023/09/20 02:31:33;;;;;;;1.48;1.00;;;21.00;66.60;;;;;;5054428;28;20171;-64
2023/09/20 02:33:59;;;;;;;3.17;1.25;;;21.00;66.60;;;;;;5054799;28;20182;-63
2023/09/20 02:36:26;;;;;;;1.48;1.38;;;21.00;66.60;;;;;;5054699;28;20175;-63
2023/09/20 02:38:52;;;;;;;2.63;1.40;;;21.00;66.70;;;;;;5054185;28;20186;-63
2023/09/20 02:41:18;;;;;;;1.67;1.38;;;21.00;66.70;;;;;;5054424;28;20613;-64
2023/09/20 02:43:43;;;;;;;1.83;1.52;;;21.00;66.70;;;;;;5054710;28;20171;-63
2023/09/20 02:46:09;;;;;;;1.98;1.33;;;21.00;66.70;;;;;;5053761;28;20197;-64
2023/09/20 02:48:35;;;;;;;1.98;1.15;;;21.00;66.70;;;;;;5054732;28;20598;-63
2023/09/20 02:51:00;;;;;;;2.78;1.30;;;20.90;66.60;;;;;;5054367;28;20179;-64
2023/09/20 02:53:26;;;;;;;2.45;1.30;;;20.90;66.70;;;;;;5053723;28;20175;-63
2023/09/20 02:55:54;;;;;;;2.00;1.15;;;21.00;66.70;;;;;;5054600;28;20210;-63
2023/09/20 02:58:19;;;;;;;3.15;1.67;;;21.00;66.70;;;;;;5054038;28;20653;-63
2023/09/20 03:00:50;;;;;;;1.45;1.15;;;21.00;66.70;;;;;;5053772;28;20184;-63
2023/09/20 03:03:17;;;;;;;2.50;1.10;;;20.90;66.70;;;;;;5054187;28;20171;-63
2023/09/20 03:05:42;;;;;;;3.50;1.35;;;20.90;66.80;;;;;;5052973;28;20637;-64
2023/09/20 03:08:11;;;;;;;1.08;0.90;;;20.90;66.70;;;;;;5053983;28;20215;-64
2023/09/20 03:10:38;;;;;;;2.90;1.33;;;20.90;66.70;;;;;;5054159;28;20541;-63
2023/09/20 03:13:05;;;;;;;1.45;1.20;;;20.90;66.70;;;;;;5053125;28;20179;-64
2023/09/20 03:15:32;;;;;;;1.58;1.23;;;20.90;66.90;;;;;;5054191;28;20178;-64
2023/09/20 03:18:03;;;;;;;3.15;1.58;;;20.90;66.80;;;;;;5054178;28;20551;-63
2023/09/20 03:20:33;;;;;;;1.40;1.10;;;20.90;66.80;;;;;;5053314;28;20286;-63
2023/09/20 03:23:00;;;;;;;2.67;1.58;;;20.90;66.80;;;;;;5053777;28;20190;-63
2023/09/20 03:25:28;;;;;;;1.13;0.90;;;20.90;66.80;;;;;;5053807;28;20236;-64
2023/09/20 03:27:54;;;;;;;2.17;1.17;;;20.90;66.80;;;;;;5053407;28;20233;-64
2023/09/20 03:30:22;;;;;;;2.13;1.10;;;20.90;66.80;;;;;;5053752;28;20182;-64
2023/09/20 03:32:49;;;;;;;1.92;1.13;;;20.90;66.80;;;;;;5053902;28;20687;-64
2023/09/20 03:35:15;;;;;;;1.75;1.40;;;20.90;66.90;;;;;;5052637;28;20175;-62
2023/09/20 03:37:41;;;;;;;2.13;1.30;;;20.90;66.90;;;;;;5053609;28;20276;-62
2023/09/20 03:40:10;;;;;;;2.15;1.35;;;20.90;66.90;;;;;;5053281;28;20238;-63
2023/09/20 03:42:39;;;;;;;3.03;1.15;;;20.90;66.90;;;;;;5053079;28;20654;-62
2023/09/20 03:45:10;;;;;;;2.08;1.40;;;20.90;66.90;;;;;;5053435;28;20182;-63
2023/09/20 03:47:38;;;;;;;1.20;1.02;;;20.90;66.90;;;;;;5053649;28;20202;-62
2023/09/20 03:50:04;;;;;;;2.08;1.20;;;20.90;66.90;;;;;;5052533;28;20175;-63
2023/09/20 03:52:30;;;;;;;1.45;1.27;;;20.90;67.00;;;;;;5053252;28;20518;-62
2023/09/20 03:54:57;;;;;;;1.42;1.02;;;20.90;67.00;;;;;;5052894;28;20167;-62
2023/09/20 03:57:24;;;;;;;1.38;1.00;;;20.90;67.00;;;;;;5053466;28;20266;-62
2023/09/20 03:59:53;;;;;;;3.72;1.13;;;20.90;67.00;;;;;;5053500;28;20202;-62
2023/09/20 04:02:23;;;;;;;2.13;1.30;;;20.90;67.00;;;;;;5052218;28;20179;-62
2023/09/20 04:05:00;;;;;;;1.48;1.10;;;20.90;67.00;;;;;;5053178;28;20300;-62
2023/09/20 04:07:26;;;;;;;1.90;1.20;;;20.90;67.00;;;;;;5053208;28;20219;-62
2023/09/20 04:09:52;;;;;;;1.88;1.30;;;20.90;67.00;;;;;;5052202;28;20175;-63
2023/09/20 04:12:18;;;;;;;2.33;1.02;;;20.90;67.10;;;;;;5052772;28;20183;-62
2023/09/20 04:14:44;;;;;;;1.20;1.10;;;20.80;67.00;;;;;;5053170;28;20167;-62
2023/09/20 04:17:09;;;;;;;2.20;1.00;;;20.90;67.10;;;;;;5051330;28;20179;-63
2023/09/20 04:19:39;;;;;;;1.75;1.20;;;20.90;67.10;;;;;;5052911;28;20648;-63
2023/09/20 04:22:08;;;;;;;1.30;1.20;;;20.90;67.10;;;;;;5052854;28;20214;-63
2023/09/20 04:24:33;;;;;;;1.38;1.20;;;20.90;67.10;;;;;;5052262;28;20171;-63
2023/09/20 04:27:01;;;;;;;1.42;1.13;;;20.80;67.10;;;;;;5052496;28;20213;-62
2023/09/20 04:29:26;;;;;;;1.73;1.27;;;20.80;67.10;;;;;;5052845;28;20168;-62
2023/09/20 04:31:52;;;;;;;1.67;1.27;;;20.90;67.10;;;;;;5051954;28;20177;-62
2023/09/20 04:34:18;;;;;;;2.85;1.20;;;20.90;67.10;;;;;;5052560;28;20178;-63
2023/09/20 04:36:45;;;;;;;1.33;1.17;;;20.90;67.10;;;;;;5052626;28;20268;-63
2023/09/20 04:39:11;;;;;;;2.10;1.40;;;20.80;67.10;;;;;;5051898;28;20183;-63
2023/09/20 04:41:37;;;;;;;1.13;1.02;;;20.80;67.10;;;;;;5052569;28;20186;-63
2023/09/20 04:44:04;;;;;;;1.35;1.25;;;20.80;67.10;;;;;;5051597;28;20174;-63
2023/09/20 04:46:30;;;;;;;2.00;1.27;;;20.80;67.10;;;;;;5052499;28;20286;-63
2023/09/20 04:48:55;;;;;;;1.63;1.20;;;20.80;67.10;;;;;;5052837;28;20183;-63
2023/09/20 04:51:22;;;;;;;1.30;1.20;;;20.80;67.20;;;;;;5051724;28;20228;-62
2023/09/20 04:53:48;;;;;;;2.33;1.25;;;20.80;67.20;;;;;;5052797;28;20179;-63
2023/09/20 04:56:13;;;;;;;1.48;1.00;;;20.80;67.10;;;;;;5052314;28;20175;-62
2023/09/20 04:58:39;;;;;;;1.10;1.00;;;20.80;67.10;;;;;;5051685;28;20183;-62
2023/09/20 05:01:05;;;;;;;1.50;1.35;;;20.80;67.10;;;;;;5052029;28;20658;-62
2023/09/20 05:03:30;;;;;;;1.10;1.00;;;20.90;67.20;;;;;;5052280;28;20698;-63
2023/09/20 05:05:56;;;;;;;2.22;1.38;;;20.80;67.10;;;;;;5051942;28;20220;-63
2023/09/20 05:08:21;;;;;;;1.60;1.40;;;20.80;67.20;;;;;;5051996;28;20596;-62
2023/09/20 05:10:47;;;;;;;1.50;1.38;;;20.80;67.20;;;;;;5052546;28;20543;-63
2023/09/20 05:13:13;;;;;;;1.58;1.23;;;20.80;67.10;;;;;;5051320;28;20677;-63
2023/09/20 05:15:38;;;;;;;1.38;1.02;;;20.80;67.20;;;;;;5052316;28;20668;-63
2023/09/20 05:18:05;;;;;;;1.85;1.58;;;20.80;67.20;;;;;;5052263;28;20253;-63
2023/09/20 05:20:33;;;;;;;2.95;1.30;;;20.80;67.10;;;;;;5051618;28;20644;-63
2023/09/20 05:22:59;;;;;;;1.35;1.10;;;20.80;67.10;;;;;;5052116;28;20171;-64
2023/09/20 05:25:25;;;;;;;1.92;1.17;;;20.80;67.20;;;;;;5052174;28;20175;-64
2023/09/20 05:27:51;;;;;;;7.82;1.58;;;20.80;67.20;;;;;;5051366;28;20213;-64
2023/09/20 05:30:18;;;;;;;1.63;1.20;;;20.80;67.20;;;;;;5055630;28;20293;-63
2023/09/20 05:32:45;;;;;;;2.15;1.27;;;20.80;67.20;;;;;;5056458;28;20182;-64
2023/09/20 05:35:11;;;;;;;1.20;1.10;;;20.80;67.20;;;;;;5055288;28;20179;-64
2023/09/20 05:37:38;;;;;;;1.48;1.30;;;20.80;67.20;;;;;;5055914;28;20285;-62
2023/09/20 05:40:07;;;;;;;1.83;1.27;;;20.80;67.20;;;;;;5055749;28;20179;-64
2023/09/20 05:42:32;;;;;;;1.13;1.02;;;20.80;67.20;;;;;;5055214;28;20175;-63
2023/09/20 05:44:58;;;;;;;1.88;1.27;;;20.80;67.20;;;;;;5055458;28;20256;-64
2023/09/20 05:47:24;;;;;;;3.20;1.50;;;20.80;67.20;;;;;;5055247;28;20215;-63
2023/09/20 05:49:49;;;;;;;2.05;1.40;;;20.80;67.20;;;;;;5055904;28;20213;-64
2023/09/20 05:52:15;;;;;;;2.88;1.40;;;20.80;67.20;;;;;;5055359;28;20175;-63
2023/09/20 05:54:44;;;;;;;2.13;1.23;;;20.80;67.10;;;;;;5055084;28;20610;-63
2023/09/20 05:57:09;;;;;;;2.67;1.48;;;20.80;67.20;;;;;;5055378;28;20179;-63
2023/09/20 05:59:35;;;;;;;1.20;1.10;;;20.80;67.20;;;;;;5055358;28;20175;-62
2023/09/20 06:02:00;;;;;;;2.63;1.50;;;20.80;67.10;;;;;;5054657;28;20597;-64
2023/09/20 06:04:26;;;;;;;2.35;1.30;;;20.80;67.10;;;;;;5055630;28;20657;-64
2023/09/20 06:06:54;;;;;;;1.60;1.20;;;20.80;67.10;;;;;;5055437;28;20665;-64
2023/09/20 06:09:19;;;;;;;2.10;1.52;;;20.90;67.10;;;;;;5054340;28;20214;-63
2023/09/20 06:11:45;;;;;;;2.50;1.42;;;20.90;67.00;;;;;;5055456;28;20579;-63
2023/09/20 06:14:10;;;;;;;1.30;1.20;;;20.80;67.00;;;;;;5054887;28;20195;-63
2023/09/20 06:16:36;;;;;;;2.10;1.40;;;20.80;67.00;;;;;;5054681;28;20220;-63
2023/09/20 06:19:02;;;;;;;2.97;1.23;;;20.90;67.00;;;;;;5055043;28;20654;-64
2023/09/20 06:21:28;;;;;;;2.35;1.80;;;20.90;66.90;;;;;;5037399;28;20197;-64
2023/09/20 06:23:54;;;;;;;1.50;1.17;;;20.80;66.90;;;;;;5054484;28;20183;-63
2023/09/20 06:26:19;;;;;;;2.05;1.20;;;20.90;67.00;;;;;;5054654;28;20232;-64
2023/09/20 06:28:45;;;;;;;2.15;1.45;;;20.90;67.00;;;;;;5055018;28;20266;-64
2023/09/20 06:31:15;;;;;;;4.57;1.60;;;20.90;66.90;;;;;;5054260;28;20171;-63
2023/09/20 06:33:43;;;;;;;1.80;1.38;;;20.90;66.90;;;;;;5055329;28;20187;-63
2023/09/20 06:36:08;;;;;;;2.45;1.63;;;20.90;66.80;;;;;;5063066;28;20174;-63
2023/09/20 06:38:36;;;;;;;1.85;1.50;;;20.90;66.90;;;;;;5065124;28;20233;-64
2023/09/20 06:41:04;;;;;;;2.60;1.63;;;20.90;67.00;;;;;;5073849;28;20170;-63
2023/09/20 06:43:30;;;;;;;3.25;1.80;;;20.90;67.10;;;;;;5058003;28;20646;-64
2023/09/20 06:45:57;;;;;;;2.97;1.50;;;20.90;67.00;;;;;;5053986;28;20183;-64
2023/09/20 06:48:24;;;;;;;2.70;1.70;;;20.90;67.00;;;;;;5054621;28;20222;-67
2023/09/20 06:50:50;;;;;;;6.13;1.83;;;20.90;67.10;;;;;;5060511;28;20175;-67
2023/09/20 06:53:17;;;;;;;2.95;1.40;;;20.90;67.00;;;;;;5074133;28;20185;-66
2023/09/20 06:55:43;;;;;;;2.90;1.35;;;20.90;67.10;;;;;;5066814;28;20586;-64
2023/09/20 06:58:08;;;;;;;4.28;1.77;;;21.00;67.10;;;;;;5055801;28;20607;-64
2023/09/20 07:00:35;;;;;;;3.92;1.75;;;21.00;66.90;;;;;;5073826;28;20213;-64
2023/09/20 07:03:02;;;;;;;2.70;1.40;;;21.10;66.80;;;;;;5069836;28;20183;-65
2023/09/20 07:05:28;;;;;;;2.45;1.65;;;21.10;66.80;;;;;;5053589;28;20172;-65
2023/09/20 07:07:54;;;;;;;2.35;1.67;;;21.10;66.90;;;;;;5060969;28;20690;-65
2023/09/20 07:10:20;;;;;;;4.55;1.70;;;21.10;66.90;;;;;;5073824;28;20182;-64
2023/09/20 07:12:45;;;;;;;2.90;1.50;;;21.10;67.00;;;;;;5059107;28;20547;-65
2023/09/20 07:15:18;;;;;;;3.50;1.40;;;21.10;67.00;;;;;;5054171;28;20168;-65
2023/09/20 07:17:44;;;;;;;2.97;1.65;;;21.10;66.90;;;;;;5054891;28;20300;-65
2023/09/20 07:20:20;;;;;;;3.05;1.70;;;21.20;66.90;;;;;;5053350;28;20213;-65
2023/09/20 07:22:47;;;;;;;3.65;1.70;;;21.20;66.80;;;;;;5053995;28;20171;-65
2023/09/20 07:25:22;;;;;;;5.32;1.75;;;21.20;66.90;;;;;;5053071;28;20179;-69
2023/09/20 07:27:49;;;;;;;2.40;1.48;;;21.30;67.60;;;;;;5053452;28;20586;-66
2023/09/20 07:30:19;;;;;;;2.83;1.42;;;21.30;66.60;;;;;;5071190;28;20174;-65
2023/09/20 07:32:51;;;;;;;2.47;1.60;;;21.40;66.50;;;;;;5069055;28;20179;-64
2023/09/20 07:35:25;;;;;;;3.47;1.83;;;21.40;66.70;;;;;;5053374;28;20225;-66
2023/09/20 07:37:56;;;;;;;2.50;1.55;;;21.30;66.70;;;;;;5053663;28;20235;-65
2023/09/20 07:40:31;;;;;;;3.20;1.73;;;21.30;66.90;;;;;;5052941;28;20155;-65
2023/09/20 07:43:06;;;;;;;2.10;1.52;;;21.30;66.90;;;;;;5068106;28;20181;-65
2023/09/20 07:45:38;;;;;;;2.17;1.42;;;21.30;67.10;;;;;;5073368;28;20686;-64
2023/09/20 07:48:12;;;;;;;4.25;1.88;;;21.30;67.30;;;;;;5072752;28;20202;-64
2023/09/20 07:50:41;;;;;;;2.47;1.60;;;21.30;67.30;;;;;;5073342;28;20171;-64
2023/09/20 07:53:10;;;;;;;4.97;1.60;;;21.30;67.40;;;;;;5072091;28;20178;-64
2023/09/20 07:55:44;;;;;;;2.08;1.45;;;21.30;67.40;;;;;;5072455;28;20185;-64
2023/09/20 07:58:15;;;;;;;2.97;1.42;;;21.30;67.50;;;;;;5069693;28;20254;-63
2023/09/20 08:00:42;;;;;;;3.25;1.42;;;21.30;67.50;;;;;;5053684;28;20250;-64
2023/09/20 08:03:09;;;;;;;4.93;1.42;;;21.30;67.50;;;;;;5059547;28;20632;-65
2023/09/20 08:05:34;;;;;;;2.67;1.50;;;21.30;68.40;;;;;;5072990;28;20724;-64
2023/09/20 08:08:00;;;;;;;2.22;1.30;;;21.30;67.50;;;;;;5071958;28;20299;-64
2023/09/20 08:10:26;;;;;;;2.15;1.38;;;21.30;67.50;;;;;;5072981;28;20253;-64
2023/09/20 08:12:51;;;;;;;3.45;1.77;;;21.30;67.50;;;;;;5072965;28;20182;-65
2023/09/20 08:15:17;;;;;;;3.00;1.77;;;21.30;67.50;;;;;;5072195;28;20185;-64
2023/09/20 08:20:27;;;;;;;3.80;1.52;;;21.30;67.30;;;;;;5072857;28;20561;-64
2023/09/20 09:01:12;;;;;;;3.80;1.50;;;21.40;67.70;;;;;;5052200;28;20182;-64
2023/09/20 09:03:38;;;;;;;1.77;1.63;;;21.40;67.70;;;;;;5047786;28;20182;-63
2023/09/20 09:06:03;;;;;;;2.08;1.55;;;21.40;67.60;;;;;;5058062;28;20185;-64
2023/09/20 09:08:29;;;;;;;2.17;1.25;;;21.30;67.70;;;;;;5058812;28;20202;-64
2023/09/20 09:10:54;;;;;;;1.85;1.50;;;21.30;67.70;;;;;;5076745;28;20198;-63
2023/09/20 09:13:20;;;;;;;3.72;1.63;;;21.30;67.50;;;;;;5075381;28;20182;-64
2023/09/20 09:15:47;;;;;;;2.22;1.50;;;21.30;67.50;;;;;;5076102;28;20170;-63
2023/09/20 09:18:17;;;;;;;1.75;1.58;;;21.30;67.50;;;;;;5076348;28;20178;-63
2023/09/20 09:20:44;;;;;;;2.40;1.70;;;21.30;67.50;;;;;;5059110;28;20170;-63
2023/09/20 09:23:10;;;;;;;1.90;1.52;;;21.30;67.50;;;;;;5058300;28;20608;-63
2023/09/20 09:25:35;;;;;;;2.35;1.55;;;21.40;67.50;;;;;;5075648;28;20201;-64
2023/09/20 09:28:01;;;;;;;2.17;1.73;;;21.40;67.40;;;;;;5076000;28;20680;-64
2023/09/20 09:30:26;;;;;;;3.60;1.90;;;21.40;67.40;;;;;;5066836;28;20178;-63
2023/09/20 09:32:52;;;;;;;1.50;1.40;;;21.40;67.40;;;;;;5058667;28;20175;-63
2023/09/20 09:35:19;;;;;;;1.58;1.38;;;21.40;67.40;;;;;;5075731;28;20659;-63
2023/09/20 09:37:44;;;;;;;2.13;1.40;;;21.40;68.20;;;;;;5066804;28;20222;-63
2023/09/20 09:40:11;;;;;;;2.22;1.40;;;21.50;67.40;;;;;;5055209;28;20617;-64
2023/09/20 09:42:39;;;;;;;2.45;1.65;;;21.40;67.40;;;;;;5055075;28;20321;-64
2023/09/20 09:45:06;;;;;;;2.50;1.88;;;21.40;67.40;;;;;;5055742;28;20224;-64
2023/09/20 09:47:33;;;;;;;2.95;1.70;;;21.40;67.40;;;;;;5074055;28;20220;-65
2023/09/20 09:49:59;;;;;;;1.98;1.50;;;21.40;67.50;;;;;;5057733;28;20179;-64
2023/09/20 09:52:25;;;;;;;1.73;1.15;;;21.40;67.60;;;;;;5057780;28;20182;-64
2023/09/20 09:54:53;;;;;;;1.60;1.48;;;21.40;67.60;;;;;;5040479;28;20185;-63
2023/09/20 09:57:19;;;;;;;2.78;1.63;;;21.40;67.60;;;;;;5075487;28;20202;-63
2023/09/20 09:59:46;;;;;;;1.85;1.75;;;21.40;67.50;;;;;;5075783;28;20194;-63
2023/09/20 10:02:19;;;;;;;3.05;1.30;;;21.50;67.60;;;;;;5074628;28;20178;-63
2023/09/20 10:05:04;;;;;;;10.30;3.58;;;21.50;67.50;;;;;;5075570;28;20254;-63
2023/09/20 10:07:40;;;;;;;8.90;2.47;;;21.60;67.20;;;;;;5074956;28;20649;-64
2023/09/20 10:10:12;;;;;;;2.55;1.60;;;21.50;67.10;;;;;;5075320;28;20186;-64
2023/09/20 10:12:38;;;;;;;4.85;2.22;;;21.50;67.20;;;;;;5075256;28;20182;-63
2023/09/20 10:15:06;;;;;;;3.60;2.00;;;21.60;67.20;;;;;;5055805;28;20181;-64
2023/09/20 10:17:32;;;;;;;2.42;2.10;;;21.60;67.20;;;;;;5041203;28;20174;-64
2023/09/20 10:19:57;;;;;;;5.53;2.50;;;21.60;67.30;;;;;;5074845;28;20507;-64
2023/09/20 10:22:23;;;;;;;4.25;2.03;;;21.60;67.30;;;;;;5074320;28;20179;-64
2023/09/20 10:24:54;;;;;;;5.53;2.60;;;21.60;67.10;;;;;;5070572;28;20170;-64
2023/09/20 10:27:21;;;;;;;7.18;2.42;;;21.60;67.00;;;;;;5059775;28;20661;-64
2023/09/20 10:30:05;;;;;;;5.75;2.55;;;21.60;67.00;;;;;;5054542;28;20190;-65
2023/09/20 10:32:32;;;;;;;4.15;2.22;;;21.60;67.00;;;;;;5054732;28;20183;-65
2023/09/20 10:35:19;;;;;;;4.43;2.80;;;21.60;66.90;;;;;;5045636;28;20184;-63
2023/09/20 10:38:17;;;;;;;7.82;2.83;;;21.70;67.40;;;;;;5044505;28;20218;-63
2023/09/20 10:40:55;;;;;;;6.20;2.53;;;21.60;67.30;;;;;;5045438;28;20524;-63
2023/09/20 10:43:25;;;;;;;5.50;2.97;;;21.60;67.30;;;;;;5043026;28;20581;-63
2023/09/20 10:45:51;;;;;;;5.53;2.53;;;21.60;67.20;;;;;;5046076;28;20638;-62
2023/09/20 10:48:23;;;;;;;6.13;2.92;;;21.60;67.30;;;;;;5054264;28;20219;-63
2023/09/20 10:50:49;;;;;;;4.95;2.67;;;21.60;67.30;;;;;;5053354;28;20171;-64
2023/09/20 10:53:18;;;;;;;5.40;2.33;;;21.60;68.10;;;;;;5054078;28;20168;-64
2023/09/20 10:55:44;;;;;;;6.47;2.53;;;21.70;67.00;;;;;;5021209;28;20199;-63
2023/09/20 10:58:09;;;;;;;7.57;2.45;;;21.70;67.10;;;;;;5053672;28;20645;-64
2023/09/20 11:00:35;;;;;;;3.65;1.98;;;21.80;66.90;;;;;;5036778;28;20175;-63
2023/09/20 11:03:06;;;;;;;6.88;2.70;;;21.70;66.50;;;;;;5054128;28;20257;-64
2023/09/20 11:05:32;;;;;;;4.72;2.33;;;21.80;67.00;;;;;;5053331;28;20266;-63
2023/09/20 11:08:03;;;;;;;5.38;2.90;;;21.80;66.90;;;;;;5036303;28;20272;-63
2023/09/20 11:10:29;;;;;;;5.18;2.42;;;21.80;67.00;;;;;;5021285;28;20261;-63
2023/09/20 11:12:55;;;;;;;4.20;2.38;;;21.80;67.00;;;;;;5053722;28;20205;-63
2023/09/20 11:15:20;;;;;;;4.90;2.80;;;21.80;66.50;;;;;;5053671;28;20641;-62
2023/09/20 11:17:47;;;;;;;6.45;2.67;;;21.80;66.80;;;;;;5036221;28;20628;-63
2023/09/20 11:20:12;;;;;;;5.10;2.28;;;21.90;66.80;;;;;;5053032;28;20617;-64
2023/09/20 11:22:38;;;;;;;5.85;2.78;;;21.90;66.60;;;;;;5053883;28;20190;-64
2023/09/20 11:25:04;;;;;;;3.67;2.80;;;21.90;66.60;;;;;;5053336;28;20174;-64
2023/09/20 11:27:34;;;;;;;4.45;2.45;;;21.90;66.60;;;;;;5053774;28;20556;-64
2023/09/20 11:30:11;;;;;;;5.45;2.88;;;21.90;66.60;;;;;;5053651;28;20634;-64
2023/09/20 11:32:39;;;;;;;5.22;2.88;;;21.90;66.50;;;;;;5053193;28;20189;-63
2023/09/20 11:35:06;;;;;;;4.53;2.28;;;21.90;66.50;;;;;;5053553;28;20175;-64
2023/09/20 11:37:35;;;;;;;4.05;2.30;;;21.90;66.60;;;;;;5053601;28;20231;-63
2023/09/20 11:40:00;;;;;;;4.50;2.33;;;21.90;66.70;;;;;;5052955;28;20178;-64
2023/09/20 11:42:27;;;;;;;5.20;2.58;;;21.90;66.80;;;;;;5053835;28;20175;-64
2023/09/20 11:44:57;;;;;;;4.47;2.20;;;21.80;66.90;;;;;;5053640;28;20175;-64
2023/09/20 11:47:22;;;;;;;3.63;2.50;;;21.80;66.80;;;;;;5052635;28;20332;-68
2023/09/20 11:49:50;;;;;;;5.50;2.72;;;21.80;66.90;;;;;;5053609;28;20223;-64
2023/09/20 11:52:20;;;;;;;4.63;2.42;;;21.80;67.00;;;;;;5053362;28;20183;-64
2023/09/20 11:54:45;;;;;;;4.90;2.40;;;21.80;67.10;;;;;;5052908;28;20182;-63
2023/09/20 11:57:15;;;;;;;4.07;2.33;;;21.80;67.20;;;;;;5035299;28;20175;-63
2023/09/20 11:59:41;;;;;;;4.47;2.30;;;21.80;67.20;;;;;;5053338;28;20183;-63
2023/09/20 12:02:08;;;;;;;6.45;2.40;;;21.80;67.00;;;;;;5052330;28;20178;-63
2023/09/20 12:04:34;;;;;;;3.20;2.15;;;21.80;67.00;;;;;;5053182;28;20645;-64
2023/09/20 12:07:00;;;;;;;5.55;2.33;;;21.90;67.00;;;;;;5052998;28;20214;-64
2023/09/20 12:09:27;;;;;;;3.88;2.13;;;21.90;66.80;;;;;;5052612;28;20182;-63
2023/09/20 12:11:52;;;;;;;4.88;2.30;;;21.90;66.80;;;;;;5053097;28;20237;-63
2023/09/20 12:14:18;;;;;;;2.95;2.30;;;21.90;66.80;;;;;;5051851;28;20170;-64
2023/09/20 12:16:47;;;;;;;7.35;2.83;;;21.90;66.80;;;;;;5053026;28;20210;-63
2023/09/20 12:19:16;;;;;;;3.85;2.45;;;21.90;66.80;;;;;;5052981;28;20274;-66
2023/09/20 12:21:44;;;;;;;5.22;2.30;;;21.80;66.80;;;;;;5052476;28;20171;-64
2023/09/20 12:24:11;;;;;;;4.97;2.15;;;21.80;66.80;;;;;;5052847;28;20535;-64
2023/09/20 12:26:37;;;;;;;4.35;2.13;;;21.90;66.90;;;;;;5052849;28;20245;-64
2023/09/20 12:29:03;;;;;;;3.15;2.25;;;21.90;66.70;;;;;;5051872;28;20645;-64
2023/09/20 12:31:28;;;;;;;3.20;2.15;;;22.00;66.80;;;;;;5052787;28;20175;-64
2023/09/20 12:33:54;;;;;;;3.53;1.83;;;22.00;66.80;;;;;;5052836;28;20333;-63
2023/09/20 12:36:23;;;;;;;3.47;2.03;;;21.90;66.80;;;;;;5051409;28;20214;-63
2023/09/20 12:38:50;;;;;;;2.95;2.15;;;21.90;67.00;;;;;;5052438;28;20254;-63
2023/09/20 12:41:15;;;;;;;2.90;2.00;;;21.90;67.00;;;;;;5052380;28;20176;-63
2023/09/20 12:43:41;;;;;;;4.13;2.20;;;22.00;66.80;;;;;;5051618;28;20652;-63
2023/09/20 12:46:07;;;;;;;3.67;2.28;;;22.00;66.80;;;;;;5052492;28;20179;-63
2023/09/20 12:48:33;;;;;;;4.28;1.95;;;21.90;66.60;;;;;;5034996;28;20214;-64
2023/09/20 12:50:59;;;;;;;3.63;2.35;;;22.00;66.70;;;;;;5051601;28;20556;-63
2023/09/20 12:53:24;;;;;;;4.07;2.22;;;22.00;66.80;;;;;;5052445;28;20182;-64
2023/09/20 12:55:50;;;;;;;2.42;2.05;;;21.90;66.80;;;;;;5052564;28;20179;-63
2023/09/20 12:58:16;;;;;;;2.40;1.75;;;21.90;66.70;;;;;;5051425;28;20225;-63
2023/09/20 13:00:42;;;;;;;3.45;2.10;;;21.90;66.80;;;;;;5052689;28;20244;-63
2023/09/20 13:03:08;;;;;;;2.35;1.95;;;21.90;66.90;;;;;;5052420;28;20228;-64
2023/09/20 13:05:37;;;;;;;3.42;2.30;;;21.90;66.80;;;;;;5051742;28;20569;-64
2023/09/20 13:08:04;;;;;;;3.88;2.25;;;22.00;66.70;;;;;;5052188;28;20238;-64
2023/09/20 13:10:32;;;;;;;2.65;2.00;;;22.10;66.70;;;;;;5051693;28;20539;-64
2023/09/20 13:12:57;;;;;;;3.05;1.83;;;22.20;66.40;;;;;;5052064;28;20549;-64
2023/09/20 13:15:23;;;;;;;3.28;1.80;;;22.20;66.20;;;;;;5052432;28;20673;-64
2023/09/20 13:17:50;;;;;;;4.97;2.00;;;22.20;66.20;;;;;;5051791;28;20545;-64
2023/09/20 13:20:18;;;;;;;2.45;1.80;;;22.30;67.20;;;;;;5052011;28;20167;-64
2023/09/20 13:22:45;;;;;;;4.07;1.83;;;22.40;65.90;;;;;;5052375;28;20175;-64
2023/09/20 13:25:19;;;;;;;2.85;2.00;;;22.40;65.70;;;;;;5051212;28;20182;-64
2023/09/20 13:27:44;;;;;;;3.20;1.95;;;22.40;65.70;;;;;;5052469;28;20215;-64
2023/09/20 13:30:11;;;;;;;3.47;2.20;;;22.30;65.80;;;;;;5052078;28;20175;-64